Latest Weather Observations for Brisbane Airport

IDQ60801

Issued at 10:52 pm EST Saturday 22 September 2018 (issued every 10 minutes, with the page automatically refreshed every 10 minutes)

About weather observations | Map of weather stations | Latest weather observations for QLD | Other Formats
Station Details ID: 040842 Name: BRISBANE AERO Lat: -27.39 Lon: 153.13 Height: 4.51 m
Data from the previous 72 hours. | See also: Recent months at Brisbane Airport
Date/Time
EST
Temp
°C
App
Temp
°C
Dew
Point
°C
Rel
Hum
%
Delta-T
°C
Wind Press
QNH
hPa
Press
MSL
hPa
Rain since
9am
mm
Dir  Spd
km/h
Gust
km/h
Spd
kts
Gust
kts
22/10:30pm 14.8 15.3 11.6 81 1.7 CALM 0 0 0 0 1025.7 1025.6 0.0
22/10:00pm 15.6 16.3 12.1 80 1.9 CALM 0 0 0 0 1025.8 1025.7 0.0
22/09:30pm 16.2 17.0 12.7 80 1.9 CALM 0 0 0 0 1025.9 1025.8 0.0
22/09:00pm 17.5 18.4 12.8 74 2.6 CALM 0 0 0 0 1025.9 1025.8 0.0
22/08:30pm 17.9 17.6 12.7 71 2.9 E 6 9 3 5 1025.9 1025.8 0.0
22/08:00pm 18.3 17.8 12.7 70 3.1 E 7 11 4 6 1025.7 1025.6 0.0
22/07:30pm 18.5 17.7 12.8 69 3.2 E 9 11 5 6 1025.6 1025.5 0.0
22/07:00pm 18.7 17.9 12.8 68 3.3 E 9 13 5 7 1025.3 1025.2 0.0
22/06:30pm 19.0 18.5 12.7 67 3.5 E 7 13 4 7 1025.1 1025.0 0.0
22/06:00pm 19.3 17.7 12.7 65 3.7 ENE 13 17 7 9 1024.8 1024.7 0.0
22/05:30pm 19.7 17.3 12.7 64 3.9 ENE 17 22 9 12 1024.6 1024.5 0.0
22/05:00pm 20.2 17.9 12.9 63 4.1 ENE 17 26 9 14 1024.4 1024.3 0.0
22/04:30pm 20.9 18.7 13.2 61 4.4 E 17 26 9 14 1024.1 1024.0 0.0
22/04:00pm 21.5 18.9 12.0 54 5.3 E 17 26 9 14 1023.8 1023.7 0.0
22/03:30pm 22.1 19.3 11.5 51 5.9 E 17 24 9 13 1023.8 1023.7 0.0
22/03:00pm 22.2 19.9 11.6 51 5.9 E 15 26 8 14 1023.8 1023.7 0.0
22/02:30pm 22.2 19.5 11.6 51 5.9 E 17 28 9 15 1024.2 1024.1 0.0
22/02:00pm 22.6 20.0 12.1 51 5.9 ESE 17 28 9 15 1024.6 1024.5 0.0
22/01:30pm 22.4 19.4 12.1 52 5.8 E 19 26 10 14 1024.9 1024.8 0.0
22/01:00pm 21.8 18.8 12.0 53 5.5 E 19 28 10 15 1025.2 1025.1 0.0
22/12:30pm 22.2 19.7 11.1 49 6.1 ESE 15 24 8 13 1025.6 1025.5 0.0
22/12:00pm 21.9 18.7 11.4 51 5.8 ESE 19 28 10 15 1026.0 1025.9 0.0
22/11:30am 22.1 19.0 11.7 51 5.8 ESE 19 30 10 16 1026.5 1026.4 0.0
22/11:00am 22.7 20.4 12.9 54 5.6 ESE 17 26 9 14 1027.0 1026.9 0.0
22/10:30am 21.5 18.9 12.0 54 5.3 ESE 17 26 9 14 1027.4 1027.3 0.0
22/10:00am 21.3 19.5 12.0 55 5.2 ESE 13 26 7 14 1027.8 1027.7 0.0
22/09:30am 21.6 19.3 11.7 53 5.5 SE 15 20 8 11 1027.9 1027.8 0.0
22/09:00am 21.1 19.0 11.3 53 5.4 SSE 13 26 7 14 1028.0 1027.9 0.0
22/08:30am 19.7 17.6 11.0 57 4.7 S 13 19 7 10 1028.0 1027.9 0.0
22/08:00am 18.2 15.5 10.5 60 4.1 SSW 15 20 8 11 1028.1 1028.0 0.0
22/07:30am 16.4 12.7 10.1 66 3.3 SSW 20 26 11 14 1028.0 1027.9 0.0
22/07:00am 15.0 11.3 10.2 73 2.5 SSW 20 26 11 14 1027.7 1027.6 0.0
22/06:30am 13.7 10.5 9.8 77 2.0 SSW 17 20 9 11 1027.3 1027.2 0.0
22/06:00am 13.1 10.1 9.1 77 2.0 SSW 15 19 8 10 1027.0 1026.9 0.0
22/05:30am 11.9 8.4 8.9 82 1.5 SSW 17 19 9 10 1026.6 1026.5 0.0
22/05:00am 12.2 9.1 9.0 81 1.6 SSW 15 19 8 10 1026.4 1026.3 0.0
22/04:30am 12.9 10.2 9.1 78 1.9 SSW 13 19 7 10 1026.0 1025.9 0.0
22/04:00am 12.8 9.3 8.8 76 2.0 SSW 17 20 9 11 1026.2 1026.1 0.0
22/03:30am 12.6 9.2 9.0 79 1.8 SSW 17 19 9 10 1026.0 1025.9 0.0
22/03:00am 12.3 9.6 8.9 80 1.7 SSW 13 15 7 8 1026.0 1025.9 0.0
22/02:30am 12.6 9.9 9.0 79 1.8 SSW 13 15 7 8 1026.1 1026.0 0.0
22/02:00am 12.0 9.4 9.2 83 1.4 SSW 13 15 7 8 1026.3 1026.2 0.0
22/01:30am 13.4 10.8 9.5 77 2.0 SSW 13 15 7 8 1026.5 1026.4 0.0
22/01:00am 13.2 11.1 9.7 79 1.8 SSW 11 13 6 7 1026.8 1026.7 0.0
22/12:30am 13.4 12.1 9.9 79 1.8 SSW 7 9 4 5 1027.0 1026.9 0.0
22/12:00am 15.0 13.4 10.2 73 2.5 SSW 9 11 5 6 1027.1 1027.0 0.0
 
Date/Time
EST
Temp
°C
App
Temp
°C
Dew
Point
°C
Rel
Hum
%
Delta-T
°C
Wind Press
QNH
hPa
Press
MSL
hPa
Rain since
9am
mm
Dir  Spd
km/h
Gust
km/h
Spd
kts
Gust
kts
21/11:30pm 15.4 13.8 10.2 71 2.7 S 9 13 5 7 1027.3 1027.2 0.0
21/11:00pm 15.5 14.2 10.1 70 2.8 S 7 9 4 5 1027.3 1027.2 0.0
21/10:30pm 15.9 14.3 10.2 69 3.0 S 9 13 5 7 1027.3 1027.2 0.0
21/10:00pm 16.1 14.6 10.4 69 3.0 SSE 9 17 5 9 1027.2 1027.1 0.0
21/09:30pm 17.4 15.5 10.4 63 3.7 SSE 11 19 6 10 1027.0 1026.9 0.0
21/09:00pm 17.8 14.4 10.7 63 3.8 ESE 19 32 10 17 1026.7 1026.6 0.0
21/08:30pm 17.9 14.9 10.6 62 3.9 SE 17 30 9 16 1026.5 1026.4 0.0
21/08:00pm 17.8 15.0 11.3 65 3.5 SE 17 28 9 15 1026.5 1026.4 0.0
21/07:30pm 18.2 15.1 10.3 60 4.2 SE 17 32 9 17 1026.2 1026.1 0.0
21/07:00pm 18.3 15.3 10.6 61 4.1 SE 17 30 9 16 1025.8 1025.7 0.0
21/06:30pm 18.4 15.4 10.5 60 4.2 SE 17 28 9 15 1025.4 1025.3 0.0
21/06:00pm 18.7 15.3 11.3 62 4.0 ESE 20 33 11 18 1025.0 1024.9 0.0
21/05:30pm 19.1 15.9 11.2 60 4.3 ESE 19 32 10 17 1024.6 1024.5 0.0
21/05:00pm 19.8 15.8 9.1 50 5.6 ESE 20 35 11 19 1024.4 1024.3 0.0
21/04:30pm 20.0 16.2 9.9 52 5.4 ESE 20 33 11 18 1024.0 1023.9 0.0
21/04:00pm 20.3 16.3 10.3 52 5.4 ESE 22 35 12 19 1023.9 1023.8 0.0
21/03:30pm 20.5 16.0 8.6 46 6.2 ESE 22 39 12 21 1023.7 1023.6 0.0
21/03:00pm 21.2 16.6 9.6 47 6.2 ESE 24 37 13 20 1023.6 1023.5 0.0
21/02:30pm 21.4 16.7 9.1 45 6.5 ESE 24 39 13 21 1023.4 1023.3 0.0
21/02:00pm 21.4 16.2 7.4 40 7.2 ESE 24 39 13 21 1023.6 1023.5 0.0
21/01:30pm 21.4 16.0 8.1 42 6.9 ESE 26 41 14 22 1023.8 1023.7 0.0
21/01:00pm 22.3 17.6 9.4 43 6.9 ESE 24 41 13 22 1024.0 1023.9 0.0
21/12:30pm 21.9 16.7 7.3 39 7.5 ESE 24 37 13 20 1024.2 1024.1 0.0
21/12:00pm 21.9 16.3 5.6 34 8.1 ESE 24 41 13 22 1024.4 1024.3 0.0
21/11:30am 21.6 16.7 7.1 39 7.4 ESE 22 39 12 21 1024.8 1024.7 0.0
21/11:00am 21.2 15.8 6.5 38 7.4 ESE 24 39 13 21 1025.2 1025.1 0.0
21/10:30am 21.7 17.3 6.4 37 7.8 SSE 19 32 10 17 1025.3 1025.2 0.0
21/10:00am 21.0 16.3 6.2 38 7.4 SSE 20 33 11 18 1025.4 1025.3 0.0
21/09:30am 20.5 16.1 7.3 42 6.8 SSE 20 37 11 20 1025.4 1025.3 0.0
21/09:00am 19.8 16.2 8.4 47 5.9 S 17 30 9 16 1025.3 1025.2 0.0
21/08:30am 18.7 14.9 8.9 53 5.1 S 19 35 10 19 1025.3 1025.2 0.0
21/08:00am 17.7 13.8 8.5 55 4.7 S 19 28 10 15 1025.0 1024.9 0.0
21/07:30am 16.4 12.8 8.5 59 4.0 SSW 17 26 9 14 1024.6 1024.5 0.0
21/07:00am 14.8 11.3 8.6 66 3.1 SSW 17 20 9 11 1024.3 1024.2 0.0
21/06:30am 13.7 10.9 8.7 72 2.5 SSW 13 17 7 9 1024.0 1023.9 0.0
21/06:00am 12.3 9.6 8.9 80 1.7 SSW 13 17 7 9 1023.3 1023.2 0.0
21/05:30am 11.4 7.9 8.6 83 1.4 SSW 17 20 9 11 1022.8 1022.7 0.0
21/05:00am 12.4 9.7 8.8 79 1.8 SSW 13 17 7 9 1022.5 1022.4 0.0
21/04:30am 12.8 9.4 9.0 78 1.9 SSW 17 22 9 12 1022.2 1022.1 0.0
21/04:00am 12.6 10.0 9.4 81 1.6 SSW 13 19 7 10 1021.8 1021.7 0.0
21/03:30am 12.4 11.1 9.8 84 1.3 SSW 7 11 4 6 1021.4 1021.3 0.0
21/03:00am 13.7 10.6 10.2 79 1.8 SSW 17 28 9 15 1021.1 1021.0 0.0
21/02:30am 14.6 12.2 10.2 75 2.3 S 13 22 7 12 1021.3 1021.2 0.0
21/02:00am 14.7 12.7 11.5 81 1.7 S 13 17 7 9 1021.4 1021.3 0.0
21/01:30am 14.7 12.4 11.7 82 1.6 SSW 15 22 8 12 1021.3 1021.2 0.0
21/01:00am 15.2 12.8 11.3 77 2.1 S 15 24 8 13 1021.4 1021.3 0.0
21/12:30am 15.6 12.8 11.5 76 2.2 S 17 26 9 14 1021.3 1021.2 0.0
21/12:00am 16.1 13.7 11.5 74 2.5 SSE 15 28 8 15 1021.1 1021.0 0.0
 
Date/Time
EST
Temp
°C
App
Temp
°C
Dew
Point
°C
Rel
Hum
%
Delta-T
°C
Wind Press
QNH
hPa
Press
MSL
hPa
Rain since
9am
mm
Dir  Spd
km/h
Gust
km/h
Spd
kts
Gust
kts
20/11:30pm 16.9 14.5 11.5 70 2.9 SSE 15 30 8 16 1020.9 1020.8 0.0
20/11:00pm 17.2 15.0 12.1 72 2.8 SE 15 28 8 15 1020.6 1020.5 0.0
20/10:30pm 17.7 15.6 12.5 71 2.9 SSE 15 26 8 14 1020.2 1020.1 0.0
20/10:00pm 17.7 16.7 13.4 76 2.4 S 11 20 6 11 1019.9 1019.8 0.0
20/09:30pm 17.0 16.1 13.8 81 1.8 SSW 11 17 6 9 1019.7 1019.6 0.0
20/09:00pm 17.9 17.5 14.2 79 2.1 S 9 11 5 6 1019.3 1019.2 0.0
20/08:30pm 18.6 18.9 14.4 76 2.4 S 6 13 3 7 1019.0 1018.9 0.0
20/08:00pm 17.8 17.5 14.5 81 1.9 SSW 9 13 5 7 1018.4 1018.3 0.0
20/07:30pm 19.0 18.8 14.7 76 2.5 SSE 9 15 5 8 1017.7 1017.7 0.0
20/07:00pm 19.6 19.4 14.8 74 2.8 SSE 9 13 5 7 1017.0 1017.0 0.0
20/06:30pm 19.6 19.3 15.4 77 2.5 SE 11 17 6 9 1016.1 1016.1 0.0
20/06:00pm 20.2 19.5 15.3 73 2.9 SE 13 22 7 12 1015.5 1015.5 0.0
20/05:30pm 20.3 19.2 15.4 73 2.9 ESE 15 24 8 13 1014.7 1014.7 0.0
20/05:00pm 20.6 19.3 15.7 73 2.9 ESE 17 28 9 15 1014.0 1014.0 0.0
20/04:30pm 20.9 19.3 16.1 74 2.9 ESE 19 30 10 16 1013.4 1013.4 0.0
20/04:00pm 21.3 19.5 16.0 72 3.2 ESE 20 30 11 16 1013.0 1013.0 0.0
20/03:30pm 21.8 19.9 15.2 66 3.9 ESE 19 32 10 17 1012.7 1012.7 0.0
20/03:00pm 21.8 19.8 15.0 65 4.0 ESE 19 30 10 16 1012.5 1012.5 0.0
20/02:30pm 22.9 20.5 15.4 62 4.5 ESE 22 33 12 18 1012.4 1012.4 0.0
20/02:00pm 22.1 20.1 15.4 65 4.0 ESE 20 33 11 18 1012.4 1012.4 0.0
20/01:30pm 23.4 21.2 16.0 63 4.5 ESE 22 35 12 19 1012.5 1012.5 0.0
20/01:00pm 24.3 21.8 16.1 60 5.0 E 24 37 13 20 1012.6 1012.6 0.0
20/12:30pm 23.1 20.5 15.8 63 4.4 E 24 33 13 18 1012.9 1012.9 0.0
20/12:00pm 23.1 20.1 15.8 63 4.4 ESE 26 37 14 20 1013.4 1013.4 0.0
20/11:30am 23.5 21.2 15.7 61 4.7 ESE 22 39 12 21 1013.7 1013.7 0.0
20/11:00am 23.3 21.2 15.1 60 4.9 E 20 30 11 16 1013.8 1013.8 0.0
20/10:30am 26.5 24.1 8.6 32 9.7 SE 11 19 6 10 1013.6 1013.6 0.0
20/10:00am 26.0 23.4 10.7 38 8.6 SW 15 22 8 12 1013.7 1013.7 0.0
20/09:30am 23.5 23.0 13.9 55 5.6 ESE 9 15 5 8 1013.7 1013.7 0.0
20/09:00am 23.2 22.5 14.4 57 5.2 N 11 17 6 9 1013.8 1013.8 0.0
20/08:30am 21.7 20.1 12.9 57 5.0 N 13 15 7 8 1013.5 1013.5 0.0
20/08:00am 21.2 19.3 11.9 55 5.2 NNW 13 17 7 9 1013.4 1013.4 0.0
20/07:30am 19.8 18.7 14.3 70 3.2 NNW 13 20 7 11 1013.4 1013.4 0.0
20/07:00am 18.1 16.7 14.6 80 2.0 NNW 15 19 8 10 1013.5 1013.5 0.0
20/06:30am 16.1 15.6 13.8 86 1.3 NNW 9 11 5 6 1013.2 1013.2 0.0
20/06:00am 14.1 13.1 12.4 89 0.9 NNW 9 13 5 7 1013.2 1013.2 0.0
20/05:30am 14.5 14.7 12.9 90 0.9 NNW 4 7 2 4 1012.9 1012.9 0.0
20/05:00am 14.7 15.7 13.1 90 0.9 CALM 0 0 0 0 1013.0 1013.0 0.0
20/04:30am 14.2 15.1 12.9 92 0.7 CALM 0 0 0 0 1012.4 1012.4 0.0
20/04:00am 15.5 15.3 13.5 88 1.1 SSW 7 7 4 4 1012.3 1012.3 0.0
20/03:30am 16.1 16.2 13.8 86 1.3 NW 6 9 3 5 1012.4 1012.4 0.0
20/03:00am 16.8 16.6 13.6 81 1.8 WNW 7 11 4 6 1012.4 1012.4 0.0
20/02:30am 16.9 16.3 13.5 80 1.9 NNW 9 11 5 6 1012.2 1012.2 0.0
20/02:00am 16.6 15.6 12.2 75 2.4 WNW 9 13 5 7 1012.4 1012.4 0.0
20/01:30am 16.7 15.5 12.9 78 2.1 WNW 11 15 6 8 1012.6 1012.6 0.0
20/01:00am 16.5 14.4 13.5 82 1.7 N 17 20 9 11 1012.6 1012.6 0.0
20/12:30am 16.4 14.6 13.4 82 1.7 N 15 17 8 9 1012.9 1012.9 0.0
20/12:00am 17.5 16.4 14.2 81 1.9 NNW 13 17 7 9 1013.4 1013.4 0.0
 
Date/Time
EST
Temp
°C
App
Temp
°C
Dew
Point
°C
Rel
Hum
%
Delta-T
°C
Wind Press
QNH
hPa
Press
MSL
hPa
Rain since
9am
mm
Dir  Spd
km/h
Gust
km/h
Spd
kts
Gust
kts
19/11:30pm 17.0 15.8 14.0 82 1.7 N 13 15 7 8 1013.4 1013.4 0.0
19/11:00pm 18.8 16.9 14.3 75 2.6 NNW 17 28 9 15 1014.1 1014.1 0.0

Other Formats:

Comma delimited format used in spreadsheet applications
http://www.bom.gov.au/fwo/IDQ60801/IDQ60801.94578.axf

JavaScript Object Notation format (JSON) in row-major order
http://www.bom.gov.au/fwo/IDQ60801/IDQ60801.94578.json